createdAt,value
2018-10-16T00:01:43.068Z,8.40
2018-10-16T00:04:11.431Z,8.40
2018-10-16T00:06:39.710Z,8.30
2018-10-16T00:09:09.016Z,8.20
2018-10-16T00:11:37.254Z,8.30
2018-10-16T00:14:05.595Z,8.30
2018-10-16T00:16:33.733Z,8.30
2018-10-16T00:19:01.875Z,8.30
2018-10-16T00:21:30.377Z,8.40
2018-10-16T00:23:58.481Z,8.30
2018-10-16T00:26:26.570Z,8.30
2018-10-16T00:28:54.684Z,8.30
2018-10-16T00:31:22.795Z,8.20
2018-10-16T00:33:50.954Z,8.10
2018-10-16T00:36:19.138Z,8.00
2018-10-16T00:38:47.387Z,8.00
2018-10-16T00:41:15.553Z,8.00
2018-10-16T00:43:43.806Z,8.00
2018-10-16T00:46:11.818Z,8.00
2018-10-16T00:48:39.999Z,8.10
2018-10-16T00:51:08.885Z,8.10
2018-10-16T00:53:37.049Z,8.10
2018-10-16T00:56:05.368Z,8.00
2018-10-16T00:58:33.394Z,7.90
2018-10-16T01:01:01.546Z,7.90
2018-10-16T01:03:29.844Z,7.90
2018-10-16T01:05:58.000Z,8.00
2018-10-16T01:08:26.106Z,8.00
2018-10-16T01:10:54.232Z,7.70
2018-10-16T01:13:22.534Z,7.60
2018-10-16T01:15:50.721Z,7.90
2018-10-16T01:18:18.963Z,7.90
2018-10-16T01:20:47.223Z,7.90
2018-10-16T01:23:15.368Z,7.90
2018-10-16T01:25:43.530Z,7.80
2018-10-16T01:28:11.612Z,7.60
2018-10-16T01:30:39.676Z,7.60
2018-10-16T01:33:07.811Z,6.60
2018-10-16T01:35:35.972Z,7.50
2018-10-16T01:38:04.274Z,7.50
2018-10-16T01:40:32.449Z,7.50
2018-10-16T01:43:00.645Z,7.40
2018-10-16T01:45:28.781Z,7.40
2018-10-16T01:47:57.184Z,7.30
2018-10-16T01:50:25.450Z,7.30
2018-10-16T01:52:54.529Z,7.20
2018-10-16T01:55:23.302Z,7.40
2018-10-16T01:57:51.616Z,7.20
2018-10-16T02:00:19.904Z,7.20
2018-10-16T02:02:48.033Z,7.20
2018-10-16T02:05:16.160Z,7.20
2018-10-16T02:07:44.309Z,7.30
2018-10-16T02:10:12.546Z,7.10
2018-10-16T02:12:40.778Z,7.00
2018-10-16T02:15:09.484Z,7.00
2018-10-16T02:17:38.653Z,7.00
2018-10-16T02:20:06.996Z,6.90
2018-10-16T02:22:35.069Z,6.90
2018-10-16T02:25:03.169Z,7.00
2018-10-16T02:27:31.289Z,7.00
2018-10-16T02:29:59.514Z,7.00
2018-10-16T02:32:27.590Z,7.10
2018-10-16T02:34:55.651Z,7.10
2018-10-16T02:37:23.762Z,7.10
2018-10-16T02:39:51.977Z,7.10
2018-10-16T02:42:20.154Z,7.10
2018-10-16T02:44:48.376Z,7.10
2018-10-16T02:47:16.533Z,7.10
2018-10-16T02:49:44.813Z,7.10
2018-10-16T02:52:12.898Z,7.10
2018-10-16T02:54:41.237Z,7.50
2018-10-16T02:57:09.414Z,6.90
2018-10-16T02:59:37.533Z,6.80
2018-10-16T03:02:06.510Z,6.70
2018-10-16T03:04:34.621Z,6.60
2018-10-16T03:07:02.670Z,6.60
2018-10-16T03:09:30.817Z,6.60
2018-10-16T03:11:58.908Z,7.20
2018-10-16T03:14:27.066Z,6.50
2018-10-16T03:16:55.184Z,6.50
2018-10-16T03:19:23.421Z,6.50
2018-10-16T03:21:51.599Z,6.50
2018-10-16T03:24:19.800Z,6.60
2018-10-16T03:26:47.869Z,6.60
2018-10-16T03:29:16.584Z,6.60
2018-10-16T03:31:44.800Z,6.40
2018-10-16T03:34:12.894Z,6.60
2018-10-16T03:36:40.943Z,6.60
2018-10-16T03:39:10.822Z,6.60
2018-10-16T03:41:38.986Z,6.60
2018-10-16T03:44:10.584Z,6.40
2018-10-16T03:46:38.716Z,6.70
2018-10-16T03:49:07.542Z,6.60
2018-10-16T03:51:35.825Z,6.60
2018-10-16T03:54:04.217Z,6.60
2018-10-16T03:56:32.393Z,6.60
2018-10-16T03:59:00.553Z,6.60
2018-10-16T04:01:28.634Z,6.00
2018-10-16T04:03:56.772Z,6.60
2018-10-16T04:06:24.925Z,6.60
2018-10-16T04:08:53.208Z,6.60
2018-10-16T04:11:21.515Z,6.60
2018-10-16T04:13:50.295Z,5.90
2018-10-16T04:16:18.886Z,6.50
2018-10-16T04:18:47.125Z,6.40
2018-10-16T04:21:15.264Z,6.40
2018-10-16T04:23:43.644Z,6.40
2018-10-16T04:26:12.337Z,6.50
2018-10-16T04:28:40.582Z,6.50
2018-10-16T04:31:10.121Z,6.50
2018-10-16T04:33:38.376Z,6.50
2018-10-16T04:36:06.664Z,6.50
2018-10-16T04:38:34.870Z,6.50
2018-10-16T04:41:03.008Z,6.50
2018-10-16T04:43:31.120Z,6.50
2018-10-16T04:45:59.202Z,6.50
2018-10-16T04:48:27.279Z,6.50
2018-10-16T04:50:55.407Z,6.50
2018-10-16T04:53:23.476Z,6.50
2018-10-16T04:55:51.545Z,6.50
2018-10-16T04:58:19.821Z,6.40
2018-10-16T05:00:47.906Z,6.40
2018-10-16T05:03:16.131Z,6.40
2018-10-16T05:05:44.471Z,6.40
2018-10-16T05:08:12.766Z,6.40
2018-10-16T05:10:41.118Z,6.40
2018-10-16T05:13:09.313Z,6.40
2018-10-16T05:15:37.558Z,6.40
2018-10-16T05:18:06.623Z,6.40
2018-10-16T05:20:34.858Z,6.30
2018-10-16T05:23:03.014Z,6.30
2018-10-16T05:25:31.171Z,6.30
2018-10-16T05:27:59.332Z,6.30
2018-10-16T05:30:27.625Z,6.30
2018-10-16T05:32:55.821Z,6.20
2018-10-16T05:35:24.103Z,6.20
2018-10-16T05:37:52.192Z,6.20
2018-10-16T05:40:20.417Z,6.30
2018-10-16T05:42:48.505Z,6.30
2018-10-16T05:45:16.749Z,6.40
2018-10-16T05:47:45.458Z,6.40
2018-10-16T05:50:13.573Z,6.40
2018-10-16T05:52:41.685Z,6.40
2018-10-16T05:55:10.675Z,6.40
2018-10-16T05:57:39.492Z,6.40
2018-10-16T06:00:24.617Z,6.40
2018-10-16T06:02:52.730Z,6.40
2018-10-16T06:05:20.891Z,6.30
2018-10-16T06:07:49.615Z,6.30
2018-10-16T06:10:17.722Z,6.30
2018-10-16T06:12:45.797Z,6.10
2018-10-16T06:15:13.931Z,6.10
2018-10-16T06:17:41.999Z,6.10
2018-10-16T06:20:12.521Z,6.10
2018-10-16T06:22:41.726Z,6.10
2018-10-16T06:25:10.979Z,6.10
2018-10-16T06:27:40.435Z,6.30
2018-10-16T06:30:09.086Z,6.30
2018-10-16T06:32:37.566Z,6.40
2018-10-16T06:35:07.023Z,6.40
2018-10-16T06:37:35.213Z,6.60
2018-10-16T06:40:03.855Z,6.70
2018-10-16T06:42:32.027Z,6.80
2018-10-16T06:45:00.023Z,6.90
2018-10-16T06:47:28.232Z,7.00
2018-10-16T06:49:56.362Z,7.10
2018-10-16T06:52:24.562Z,7.30
2018-10-16T06:54:52.803Z,7.40
2018-10-16T06:57:20.981Z,7.60
2018-10-16T06:59:49.110Z,7.70
2018-10-16T07:02:17.977Z,7.80
2018-10-16T07:04:46.716Z,8.00
2018-10-16T07:07:15.017Z,8.10
2018-10-16T07:09:43.150Z,9.20
2018-10-16T07:12:11.392Z,11.30
2018-10-16T07:14:39.634Z,13.10
2018-10-16T07:17:07.864Z,14.60
2018-10-16T07:19:35.893Z,15.50
2018-10-16T07:22:08.307Z,16.70
2018-10-16T07:24:36.528Z,17.40
2018-10-16T07:27:05.080Z,18.30
2018-10-16T07:29:33.204Z,19.20
2018-10-16T07:32:01.702Z,18.80
2018-10-16T07:34:30.573Z,19.90
2018-10-16T07:36:58.782Z,20.40
2018-10-16T07:39:26.963Z,20.30
2018-10-16T07:41:55.762Z,20.00
2018-10-16T07:44:24.044Z,20.70
2018-10-16T07:46:52.244Z,21.30
2018-10-16T07:49:20.422Z,21.50
2018-10-16T07:51:48.581Z,22.10
2018-10-16T07:54:16.813Z,22.60
2018-10-16T07:56:45.143Z,22.90
2018-10-16T07:59:13.182Z,23.00
2018-10-16T08:01:41.812Z,22.70
2018-10-16T08:04:09.935Z,23.20
2018-10-16T08:06:38.223Z,22.20
2018-10-16T08:09:11.098Z,23.00
2018-10-16T08:11:49.480Z,23.50
2018-10-16T08:14:18.408Z,24.20
2018-10-16T08:16:47.766Z,23.80
2018-10-16T08:19:15.868Z,24.80
2018-10-16T08:21:44.889Z,23.20
2018-10-16T08:24:13.154Z,22.30
2018-10-16T08:26:41.341Z,21.10
2018-10-16T08:29:09.611Z,20.00
2018-10-16T08:31:38.037Z,19.10
2018-10-16T08:34:06.521Z,18.40
2018-10-16T08:36:34.833Z,17.40
2018-10-16T08:39:15.719Z,16.90
2018-10-16T08:42:14.670Z,16.40
2018-10-16T08:45:27.749Z,16.50
2018-10-16T08:50:20.247Z,15.80
2018-10-16T08:52:48.285Z,15.40
2018-10-16T08:55:16.351Z,15.20
2018-10-16T08:57:44.412Z,15.30
2018-10-16T09:00:12.505Z,15.10
2018-10-16T09:02:40.827Z,14.90
2018-10-16T09:05:09.377Z,14.80
2018-10-16T09:07:37.509Z,14.90
2018-10-16T09:10:05.642Z,14.90
2018-10-16T09:12:34.329Z,15.00
2018-10-16T09:15:02.409Z,15.30
2018-10-16T09:17:30.529Z,15.50
2018-10-16T09:19:58.770Z,15.70
2018-10-16T09:22:26.887Z,15.90
2018-10-16T09:24:54.975Z,15.90
2018-10-16T09:27:23.138Z,16.10
2018-10-16T09:29:51.406Z,16.20
2018-10-16T09:32:19.673Z,16.20
2018-10-16T09:34:47.833Z,16.40
2018-10-16T09:37:16.113Z,16.30
2018-10-16T09:39:44.417Z,16.50
2018-10-16T09:42:12.555Z,16.70
2018-10-16T09:44:40.670Z,17.00
2018-10-16T09:47:08.808Z,17.00
2018-10-16T09:49:37.111Z,17.40
2018-10-16T09:52:05.772Z,17.30
2018-10-16T09:54:33.882Z,17.20
2018-10-16T09:57:02.161Z,17.30
2018-10-16T09:59:30.273Z,17.40
2018-10-16T10:01:58.569Z,17.50
2018-10-16T10:04:26.773Z,17.60
2018-10-16T10:06:55.019Z,17.60
2018-10-16T10:09:23.806Z,17.60
2018-10-16T10:11:52.055Z,17.80
2018-10-16T10:14:20.252Z,17.90
2018-10-16T10:16:48.499Z,18.10
2018-10-16T10:19:16.751Z,18.20
2018-10-16T10:21:44.882Z,18.40
2018-10-16T10:24:13.000Z,18.60
2018-10-16T10:26:41.112Z,18.80
2018-10-16T10:29:09.247Z,19.00
2018-10-16T10:31:37.357Z,19.20
2018-10-16T10:34:05.616Z,19.50
2018-10-16T10:36:33.693Z,19.50
2018-10-16T10:39:01.921Z,19.80
2018-10-16T10:41:29.978Z,20.40
2018-10-16T10:43:58.670Z,21.80
2018-10-16T10:46:26.779Z,23.20
2018-10-16T10:48:55.626Z,24.00
2018-10-16T10:51:24.893Z,24.20
2018-10-16T10:53:52.709Z,25.30
2018-10-16T10:56:20.921Z,25.50
2018-10-16T10:58:49.035Z,25.50
2018-10-16T11:01:17.098Z,26.10
2018-10-16T11:03:45.212Z,27.00
2018-10-16T11:06:13.370Z,28.30
2018-10-16T11:08:41.490Z,29.10
2018-10-16T11:11:09.662Z,29.90
2018-10-16T11:13:38.639Z,30.60
2018-10-16T11:16:06.786Z,31.30
2018-10-16T11:18:34.993Z,32.20
2018-10-16T11:21:03.218Z,32.30
2018-10-16T11:23:31.289Z,32.70
2018-10-16T11:25:59.473Z,33.40
2018-10-16T11:28:27.653Z,33.30
2018-10-16T11:30:55.889Z,33.60
2018-10-16T11:33:24.477Z,33.90
2018-10-16T11:35:52.641Z,34.00
2018-10-16T11:38:20.864Z,33.80
2018-10-16T11:40:49.031Z,34.00
2018-10-16T11:43:17.382Z,33.60
2018-10-16T11:45:45.699Z,33.00
2018-10-16T11:48:13.915Z,32.60
2018-10-16T11:50:42.730Z,32.90
2018-10-16T11:53:10.948Z,33.60
2018-10-16T11:55:39.754Z,34.30
2018-10-16T11:58:07.928Z,34.30
2018-10-16T12:00:36.215Z,35.00
2018-10-16T12:03:04.601Z,35.00
2018-10-16T12:05:32.759Z,34.70
2018-10-16T12:08:00.980Z,35.00
2018-10-16T12:10:29.159Z,35.40
2018-10-16T12:12:57.359Z,35.20
2018-10-16T12:15:25.580Z,34.90
2018-10-16T12:18:31.183Z,34.90
2018-10-16T12:21:02.765Z,35.30
2018-10-16T12:23:30.851Z,35.30
2018-10-16T12:25:59.514Z,35.40
2018-10-16T12:28:27.574Z,35.20
2018-10-16T12:30:55.741Z,35.40
2018-10-16T12:33:23.798Z,36.00
2018-10-16T12:35:51.971Z,35.70
2018-10-16T12:38:20.132Z,35.30
2018-10-16T12:40:48.314Z,35.50
2018-10-16T12:43:17.262Z,35.70
2018-10-16T12:45:45.336Z,36.00
2018-10-16T12:48:13.550Z,35.80
2018-10-16T12:50:41.844Z,35.40
2018-10-16T12:53:10.004Z,34.50
2018-10-16T12:55:38.118Z,33.40
2018-10-16T12:58:06.419Z,32.60
2018-10-16T13:00:34.611Z,31.70
2018-10-16T13:03:02.905Z,32.20
2018-10-16T13:05:30.966Z,32.50
2018-10-16T13:07:59.096Z,32.70
2018-10-16T13:10:27.762Z,31.90
2018-10-16T13:12:56.042Z,31.20
2018-10-16T13:15:24.360Z,30.60
2018-10-16T13:17:52.746Z,30.00
2018-10-16T13:20:20.853Z,29.00
2018-10-16T13:22:49.833Z,28.60
2018-10-16T13:25:17.900Z,27.80
2018-10-16T13:27:46.078Z,27.50
2018-10-16T13:30:15.784Z,27.10
2018-10-16T13:32:44.595Z,26.60
2018-10-16T13:35:14.816Z,26.20
2018-10-16T13:37:43.613Z,25.90
2018-10-16T13:40:11.918Z,25.80
2018-10-16T13:42:40.001Z,25.50
2018-10-16T13:45:09.721Z,25.30
2018-10-16T13:47:37.821Z,25.10
2018-10-16T13:50:08.846Z,24.80
2018-10-16T13:52:36.953Z,24.70
2018-10-16T13:55:05.653Z,24.60
2018-10-16T13:57:33.853Z,24.60
2018-10-16T14:00:02.810Z,24.90
2018-10-16T14:02:30.870Z,25.20
2018-10-16T14:04:59.045Z,25.70
2018-10-16T14:07:27.103Z,26.00
2018-10-16T14:09:55.195Z,25.90
2018-10-16T14:12:23.359Z,26.20
2018-10-16T14:14:51.554Z,26.10
2018-10-16T14:17:19.762Z,25.90
2018-10-16T14:19:47.873Z,25.80
2018-10-16T14:22:16.323Z,26.00
2018-10-16T14:24:44.398Z,26.00
2018-10-16T14:27:12.642Z,25.80
2018-10-16T14:29:42.037Z,25.80
2018-10-16T14:32:10.349Z,25.50
2018-10-16T14:34:38.463Z,25.40
2018-10-16T14:37:06.642Z,25.30
2018-10-16T14:39:34.763Z,25.10
2018-10-16T14:42:03.050Z,24.40
2018-10-16T14:44:31.252Z,24.60
2018-10-16T14:46:59.501Z,24.40
2018-10-16T14:49:27.716Z,24.30
2018-10-16T14:51:56.062Z,24.10
2018-10-16T14:54:24.591Z,24.00
2018-10-16T14:56:53.428Z,23.80
2018-10-16T14:59:21.654Z,23.60
2018-10-16T15:01:50.975Z,23.40
2018-10-16T15:04:19.112Z,23.30
2018-10-16T15:06:47.328Z,23.10
2018-10-16T15:09:15.564Z,22.60
2018-10-16T15:11:43.698Z,22.90
2018-10-16T15:14:11.918Z,22.90
2018-10-16T15:16:40.078Z,22.60
2018-10-16T15:19:08.234Z,22.50
2018-10-16T15:21:36.409Z,22.40
2018-10-16T15:24:04.792Z,22.20
2018-10-16T15:26:32.946Z,22.00
2018-10-16T15:29:01.155Z,21.90
2018-10-16T15:31:29.345Z,21.80
2018-10-16T15:33:57.480Z,21.70
2018-10-16T15:36:25.682Z,21.60
2018-10-16T15:38:53.881Z,21.40
2018-10-16T15:41:22.140Z,21.20
2018-10-16T15:43:50.410Z,20.80
2018-10-16T15:46:18.600Z,20.80
2018-10-16T15:48:46.839Z,20.80
2018-10-16T15:51:14.991Z,20.90
2018-10-16T15:53:43.061Z,20.90
2018-10-16T15:56:11.379Z,20.90
2018-10-16T15:58:39.526Z,20.80
2018-10-16T16:01:07.824Z,20.80
2018-10-16T16:03:36.202Z,20.70
2018-10-16T16:06:05.341Z,20.70
2018-10-16T16:08:33.353Z,20.60
2018-10-16T16:11:01.490Z,20.40
2018-10-16T16:13:29.721Z,20.40
2018-10-16T16:15:57.870Z,20.30
2018-10-16T16:18:26.114Z,20.30
2018-10-16T16:20:54.153Z,20.30
2018-10-16T16:23:22.422Z,20.20
2018-10-16T16:25:50.788Z,20.10
2018-10-16T16:28:18.853Z,20.10
2018-10-16T16:30:46.942Z,19.80
2018-10-16T16:33:14.994Z,19.70
2018-10-16T16:35:43.097Z,19.50
2018-10-16T16:38:11.452Z,19.40
2018-10-16T16:40:39.496Z,19.40
2018-10-16T16:43:07.656Z,19.30
2018-10-16T16:45:35.793Z,19.20
2018-10-16T16:48:04.018Z,18.90
2018-10-16T16:50:32.249Z,18.80
2018-10-16T16:53:00.441Z,18.70
2018-10-16T16:55:28.543Z,18.70
2018-10-16T16:57:56.669Z,18.60
2018-10-16T17:00:24.825Z,18.40
2018-10-16T17:02:53.069Z,18.00
2018-10-16T17:05:21.175Z,18.30
2018-10-16T17:07:49.376Z,18.30
2018-10-16T17:10:17.573Z,18.10
2018-10-16T17:12:45.888Z,18.10
2018-10-16T17:15:15.244Z,17.80
2018-10-16T17:17:44.265Z,17.70
2018-10-16T17:20:12.605Z,17.70
2018-10-16T17:22:40.839Z,17.70
2018-10-16T17:25:11.410Z,17.50
2018-10-16T17:27:39.482Z,16.90
2018-10-16T17:30:10.898Z,17.30
2018-10-16T17:32:39.213Z,17.30
2018-10-16T17:35:08.373Z,17.30
2018-10-16T17:37:36.531Z,17.30
2018-10-16T17:40:06.330Z,17.30
2018-10-16T17:42:35.718Z,17.30
2018-10-16T17:45:04.343Z,16.70
2018-10-16T17:47:32.713Z,17.30
2018-10-16T17:50:00.917Z,17.20
2018-10-16T17:52:29.257Z,17.20
2018-10-16T17:55:01.422Z,17.20
2018-10-16T17:57:36.000Z,17.10
2018-10-16T18:00:06.103Z,17.10
2018-10-16T18:02:34.785Z,17.10
2018-10-16T18:05:03.284Z,17.10
2018-10-16T18:07:31.437Z,17.00
2018-10-16T18:09:59.621Z,17.00
2018-10-16T18:12:27.809Z,17.00
2018-10-16T18:14:56.161Z,17.00
2018-10-16T18:17:24.435Z,16.90
2018-10-16T18:19:52.543Z,16.90
2018-10-16T18:22:20.642Z,16.90
2018-10-16T18:24:48.874Z,16.80
2018-10-16T18:27:17.056Z,16.70
2018-10-16T18:29:45.182Z,16.50
2018-10-16T18:32:13.325Z,16.20
2018-10-16T18:34:41.489Z,16.20
2018-10-16T18:37:09.751Z,16.10
2018-10-16T18:39:38.878Z,16.00
2018-10-16T18:42:06.925Z,15.50
2018-10-16T18:44:35.134Z,15.80
2018-10-16T18:47:03.296Z,15.70
2018-10-16T18:49:31.540Z,15.60
2018-10-16T18:51:59.725Z,15.60
2018-10-16T18:54:27.852Z,15.60
2018-10-16T18:56:56.988Z,15.90
2018-10-16T18:59:25.119Z,15.50
2018-10-16T19:01:53.196Z,15.40
2018-10-16T19:04:21.359Z,15.30
2018-10-16T19:06:49.541Z,15.30
2018-10-16T19:09:17.955Z,15.20
2018-10-16T19:11:46.098Z,15.10
2018-10-16T19:14:14.319Z,15.00
2018-10-16T19:16:42.563Z,14.90
2018-10-16T19:19:10.669Z,14.80
2018-10-16T19:21:38.901Z,14.70
2018-10-16T19:24:07.363Z,14.60
2018-10-16T19:26:35.542Z,14.50
2018-10-16T19:29:03.689Z,14.40
2018-10-16T19:31:31.914Z,14.20
2018-10-16T19:34:00.154Z,14.10
2018-10-16T19:36:28.528Z,14.10
2018-10-16T19:38:56.658Z,14.10
2018-10-16T19:41:24.781Z,13.60
2018-10-16T19:43:52.896Z,13.90
2018-10-16T19:46:21.028Z,13.80
2018-10-16T19:48:49.910Z,13.70
2018-10-16T19:51:18.100Z,13.60
2018-10-16T19:53:46.314Z,13.50
2018-10-16T19:56:14.694Z,13.50
2018-10-16T19:58:42.982Z,13.40
2018-10-16T20:01:11.192Z,13.40
2018-10-16T20:03:39.415Z,13.30
2018-10-16T20:06:07.625Z,13.30
2018-10-16T20:08:35.901Z,12.90
2018-10-16T20:11:04.347Z,13.20
2018-10-16T20:13:32.511Z,13.10
2018-10-16T20:16:00.647Z,13.00
2018-10-16T20:18:28.864Z,13.00
2018-10-16T20:20:56.982Z,12.90
2018-10-16T20:23:25.070Z,12.90
2018-10-16T20:25:53.228Z,12.90
2018-10-16T20:28:21.388Z,12.80
2018-10-16T20:30:49.504Z,12.70
2018-10-16T20:33:17.809Z,12.60
2018-10-16T20:35:45.945Z,12.60
2018-10-16T20:38:14.393Z,12.50
2018-10-16T20:40:42.593Z,12.40
2018-10-16T20:43:10.889Z,12.40
2018-10-16T20:45:38.954Z,12.30
2018-10-16T20:48:07.063Z,12.30
2018-10-16T20:50:42.168Z,12.20
2018-10-16T20:53:10.357Z,12.20
2018-10-16T20:55:38.508Z,12.10
2018-10-16T20:58:06.825Z,12.10
2018-10-16T21:00:35.073Z,12.10
2018-10-16T21:03:03.351Z,12.20
2018-10-16T21:05:31.682Z,12.10
2018-10-16T21:07:59.892Z,12.10
2018-10-16T21:10:27.985Z,12.10
2018-10-16T21:12:56.178Z,12.00
2018-10-16T21:15:24.323Z,11.90
2018-10-16T21:17:52.360Z,11.80
2018-10-16T21:20:20.489Z,11.80
2018-10-16T21:22:48.626Z,11.70
2018-10-16T21:25:16.894Z,11.60
2018-10-16T21:27:44.852Z,11.60
2018-10-16T21:30:12.990Z,11.60
2018-10-16T21:32:41.045Z,11.60
2018-10-16T21:35:09.261Z,11.60
2018-10-16T21:37:37.394Z,11.60
2018-10-16T21:40:07.175Z,11.60
2018-10-16T21:42:35.325Z,11.50
2018-10-16T21:45:03.586Z,11.50
2018-10-16T21:47:31.757Z,11.50
2018-10-16T21:49:59.925Z,11.40
2018-10-16T21:52:27.986Z,11.40
2018-10-16T21:54:56.173Z,11.30
2018-10-16T21:57:24.556Z,11.30
2018-10-16T21:59:52.810Z,11.30
2018-10-16T22:02:26.529Z,11.20
2018-10-16T22:04:54.656Z,11.20
2018-10-16T22:07:22.821Z,11.10
2018-10-16T22:09:51.012Z,11.10
2018-10-16T22:12:19.193Z,11.10
2018-10-16T22:14:47.278Z,11.00
2018-10-16T22:17:15.476Z,11.00
2018-10-16T22:19:43.498Z,11.00
2018-10-16T22:22:11.804Z,11.00
2018-10-16T22:24:40.057Z,10.90
2018-10-16T22:27:08.150Z,10.90
2018-10-16T22:29:41.875Z,10.90
2018-10-16T22:32:09.882Z,10.80
2018-10-16T22:34:38.113Z,10.80
2018-10-16T22:37:06.346Z,10.70
2018-10-16T22:39:34.808Z,10.60
2018-10-16T22:42:03.114Z,10.60
2018-10-16T22:44:31.410Z,10.60
2018-10-16T22:47:00.193Z,10.60
2018-10-16T22:49:33.521Z,10.60
2018-10-16T22:52:01.770Z,10.60
2018-10-16T22:54:29.852Z,10.50
2018-10-16T22:56:58.057Z,10.60
2018-10-16T22:59:31.158Z,10.60
2018-10-16T23:01:59.277Z,10.50
2018-10-16T23:04:27.361Z,10.10
2018-10-16T23:06:55.520Z,10.50
2018-10-16T23:09:23.764Z,10.50
2018-10-16T23:11:51.860Z,10.40
2018-10-16T23:14:19.957Z,10.40
2018-10-16T23:16:48.065Z,10.40
2018-10-16T23:19:16.196Z,10.30
2018-10-16T23:21:44.429Z,10.40
2018-10-16T23:24:12.519Z,10.30
2018-10-16T23:26:40.619Z,10.30
2018-10-16T23:29:08.831Z,10.20
2018-10-16T23:31:36.897Z,10.20
2018-10-16T23:34:05.314Z,10.20
2018-10-16T23:36:33.364Z,10.20
2018-10-16T23:39:01.591Z,10.10
2018-10-16T23:41:29.775Z,10.10
2018-10-16T23:43:57.889Z,10.10
2018-10-16T23:46:26.011Z,10.10
2018-10-16T23:48:54.139Z,10.10
2018-10-16T23:51:22.297Z,10.00
2018-10-16T23:53:50.384Z,10.20
2018-10-16T23:56:18.875Z,9.50
2018-10-16T23:58:47.109Z,9.90
